Time;durP1;ratioP1;P1;durP2;ratioP2;P2;SDS_P1;SDS_P2;PMS_P1;PMS_P2;Temp;Humidity;BMP_temperature;BMP_pressure;BME280_temperature;BME280_humidity;BME280_pressure;Samples;Min_cycle;Max_cycle;Signal;HPM_P1;HPM_P2
2022/06/09 00:01:41;;;;;;;106.57;50.03;;;;;;;;;;4900870;29;20052;-67
2022/06/09 00:04:14;;;;;;;116.50;50.40;;;;;;;;;;4907366;29;20043;-67
2022/06/09 00:06:59;;;;;;;107.55;49.05;;;;;;;;;;4912100;29;20043;-67
2022/06/09 00:09:29;;;;;;;124.60;52.67;;;;;;;;;;4910745;29;20123;-67
2022/06/09 00:11:55;;;;;;;131.43;54.25;;;;;;;;;;4901360;29;20135;-67
2022/06/09 00:14:23;;;;;;;112.60;51.90;;;;;;;;;;4915779;29;20048;-67
2022/06/09 00:16:49;;;;;;;116.18;55.60;;;;;;;;;;4900443;29;20044;-67
2022/06/09 00:19:16;;;;;;;106.45;49.88;;;;;;;;;;4901124;29;20119;-67
2022/06/09 00:21:42;;;;;;;121.68;57.20;;;;;;;;;;4906460;29;20045;-67
2022/06/09 00:24:09;;;;;;;126.93;53.67;;;;;;;;;;4900703;29;20045;-67
2022/06/09 00:26:36;;;;;;;123.50;53.35;;;;;;;;;;4899142;29;20052;-67
2022/06/09 00:29:03;;;;;;;116.18;53.70;;;;;;;;;;4898377;29;20135;-67
2022/06/09 00:31:30;;;;;;;126.80;50.78;;;;;;;;;;4900875;29;20135;-67
2022/06/09 00:33:57;;;;;;;114.68;52.10;;;;;;;;;;4900507;29;20090;-67
2022/06/09 00:36:23;;;;;;;104.43;50.30;;;;;;;;;;4900475;29;20044;-67
2022/06/09 00:38:50;;;;;;;112.15;52.47;;;;;;;;;;4900622;29;20111;-67
2022/06/09 00:41:16;;;;;;;109.40;49.88;;;;;;;;;;4897417;29;20506;-67
2022/06/09 00:43:43;;;;;;;105.03;46.97;;;;;;;;;;4902748;29;20068;-67
2022/06/09 00:46:10;;;;;;;119.15;48.50;;;;;;;;;;4903380;29;20041;-67
2022/06/09 00:48:40;;;;;;;93.28;45.47;;;;;;;;;;4900888;29;20092;-67
2022/06/09 00:51:36;;;;;;;88.75;44.88;;;;;;;;;;4899676;29;20530;-67
2022/06/09 00:54:05;;;;;;;80.97;43.67;;;;;;;;;;4900619;29;20075;-67
2022/06/09 00:56:33;;;;;;;105.85;44.47;;;;;;;;;;4896502;29;20055;-67
2022/06/09 00:59:00;;;;;;;100.32;44.83;;;;;;;;;;4913976;29;20556;-67
2022/06/09 01:01:27;;;;;;;98.20;43.35;;;;;;;;;;4902391;29;20045;-67
2022/06/09 01:03:59;;;;;;;78.13;40.45;;;;;;;;;;4908485;29;20047;-68
2022/06/09 01:06:29;;;;;;;82.03;41.63;;;;;;;;;;4913999;29;20557;-67
2022/06/09 01:08:58;;;;;;;79.80;40.70;;;;;;;;;;4901022;29;20119;-67
2022/06/09 01:11:26;;;;;;;86.70;40.78;;;;;;;;;;4919236;29;20505;-67
2022/06/09 01:13:56;;;;;;;71.72;38.15;;;;;;;;;;4919185;29;20048;-67
2022/06/09 01:16:35;;;;;;;73.40;38.97;;;;;;;;;;4906685;29;20132;-67
2022/06/09 01:19:10;;;;;;;73.25;37.72;;;;;;;;;;4903631;29;20048;-68
2022/06/09 01:21:56;;;;;;;69.25;39.10;;;;;;;;;;4912318;29;20044;-68
2022/06/09 01:24:31;;;;;;;68.97;36.20;;;;;;;;;;4914281;29;20048;-67
2022/06/09 01:27:09;;;;;;;66.93;39.33;;;;;;;;;;4900953;29;20048;-67
2022/06/09 01:29:54;;;;;;;78.22;38.17;;;;;;;;;;4918533;29;20139;-67
2022/06/09 01:32:26;;;;;;;78.13;36.42;;;;;;;;;;4903826;29;20047;-67
2022/06/09 01:34:56;;;;;;;56.28;33.25;;;;;;;;;;4902823;29;20486;-67
2022/06/09 01:37:28;;;;;;;55.75;33.40;;;;;;;;;;4903776;29;20040;-67
2022/06/09 01:39:57;;;;;;;51.65;33.03;;;;;;;;;;4903656;29;20076;-67
2022/06/09 01:42:31;;;;;;;53.05;32.53;;;;;;;;;;4906014;29;20123;-67
2022/06/09 01:45:02;;;;;;;62.92;34.80;;;;;;;;;;4903708;29;20048;-67
2022/06/09 01:47:32;;;;;;;75.75;37.00;;;;;;;;;;4900921;29;20131;-67
2022/06/09 01:50:02;;;;;;;62.90;34.75;;;;;;;;;;4901974;29;20076;-67
2022/06/09 01:52:30;;;;;;;64.53;36.00;;;;;;;;;;4903321;29;20140;-67
2022/06/09 01:54:58;;;;;;;66.47;37.47;;;;;;;;;;4907142;29;20123;-67
2022/06/09 01:57:27;;;;;;;75.05;40.33;;;;;;;;;;4913399;29;20471;-67
2022/06/09 02:00:00;;;;;;;82.57;42.45;;;;;;;;;;4903215;29;20135;-67
2022/06/09 02:02:44;;;;;;;98.63;43.50;;;;;;;;;;4901385;29;20052;-67
2022/06/09 02:05:16;;;;;;;65.80;37.83;;;;;;;;;;4900084;29;20048;-67
2022/06/09 02:07:44;;;;;;;84.00;41.15;;;;;;;;;;4903051;29;20045;-67
2022/06/09 02:10:34;;;;;;;76.80;42.25;;;;;;;;;;4902768;29;20047;-67
2022/06/09 02:13:03;;;;;;;79.32;41.88;;;;;;;;;;4902052;29;20052;-67
2022/06/09 02:15:38;;;;;;;84.78;41.33;;;;;;;;;;4914062;29;20051;-68
2022/06/09 02:18:06;;;;;;;74.60;39.30;;;;;;;;;;4903786;29;20040;-67
2022/06/09 02:20:34;;;;;;;87.65;40.60;;;;;;;;;;4900336;29;20402;-67
2022/06/09 02:23:00;;;;;;;85.78;42.78;;;;;;;;;;4901751;29;20064;-67
2022/06/09 02:25:27;;;;;;;97.97;47.72;;;;;;;;;;4902631;29;20482;-67
2022/06/09 02:27:54;;;;;;;91.55;44.25;;;;;;;;;;4902206;29;20044;-67
2022/06/09 02:30:20;;;;;;;111.95;48.17;;;;;;;;;;4902745;29;20040;-67
2022/06/09 02:33:07;;;;;;;97.35;46.65;;;;;;;;;;4902901;29;20556;-67
2022/06/09 02:35:35;;;;;;;109.50;45.95;;;;;;;;;;4900292;29;20052;-67
2022/06/09 02:38:01;;;;;;;87.32;44.60;;;;;;;;;;4901089;29;20048;-67
2022/06/09 02:40:28;;;;;;;101.32;45.55;;;;;;;;;;4903041;29;20139;-67
2022/06/09 02:42:55;;;;;;;101.97;48.35;;;;;;;;;;4902222;29;20047;-67
2022/06/09 02:45:22;;;;;;;94.35;48.63;;;;;;;;;;4902437;29;20040;-67
2022/06/09 02:47:49;;;;;;;107.30;49.38;;;;;;;;;;4917544;29;20429;-67
2022/06/09 02:50:15;;;;;;;126.95;50.92;;;;;;;;;;4897147;29;20041;-67
2022/06/09 02:52:42;;;;;;;89.47;45.20;;;;;;;;;;4902809;29;20525;-67
2022/06/09 02:55:09;;;;;;;107.00;50.10;;;;;;;;;;4901942;29;20114;-67
2022/06/09 02:57:36;;;;;;;111.05;48.83;;;;;;;;;;4903924;29;20127;-67
2022/06/09 03:00:05;;;;;;;95.63;45.20;;;;;;;;;;4915927;29;20107;-67
2022/06/09 03:02:32;;;;;;;117.20;48.08;;;;;;;;;;4899539;29;20044;-67
2022/06/09 03:04:59;;;;;;;90.70;45.05;;;;;;;;;;4900604;29;20052;-67
2022/06/09 03:07:26;;;;;;;108.05;44.13;;;;;;;;;;4901859;29;20140;-67
2022/06/09 03:09:53;;;;;;;79.43;42.97;;;;;;;;;;4902111;29;20044;-67
2022/06/09 03:12:20;;;;;;;72.45;41.33;;;;;;;;;;4905439;29;20059;-67
2022/06/09 03:14:47;;;;;;;67.68;39.88;;;;;;;;;;4916681;29;20059;-67
2022/06/09 03:17:13;;;;;;;65.57;39.70;;;;;;;;;;4910181;29;20058;-67
2022/06/09 03:19:40;;;;;;;65.25;39.50;;;;;;;;;;4902034;29;20048;-67
2022/06/09 03:22:07;;;;;;;78.20;37.67;;;;;;;;;;4901679;29;20132;-67
2022/06/09 03:24:34;;;;;;;54.60;35.72;;;;;;;;;;4902489;29;20032;-67
2022/06/09 03:27:00;;;;;;;75.25;39.08;;;;;;;;;;4915581;29;20086;-67
2022/06/09 03:29:27;;;;;;;57.85;32.13;;;;;;;;;;4898959;29;20569;-67
2022/06/09 03:31:53;;;;;;;55.33;31.83;;;;;;;;;;4901152;29;20136;-67
2022/06/09 03:34:20;;;;;;;47.05;32.35;;;;;;;;;;4901038;29;20135;-67
2022/06/09 03:36:46;;;;;;;46.13;30.52;;;;;;;;;;4911415;29;20108;-68
2022/06/09 03:39:13;;;;;;;51.20;30.30;;;;;;;;;;4912421;29;20036;-67
2022/06/09 03:41:40;;;;;;;56.67;29.52;;;;;;;;;;4916397;29;20075;-67
2022/06/09 03:44:06;;;;;;;36.92;26.23;;;;;;;;;;4899679;29;20044;-68
2022/06/09 03:46:33;;;;;;;40.83;26.55;;;;;;;;;;4914252;29;20473;-67
2022/06/09 03:49:01;;;;;;;63.15;27.00;;;;;;;;;;4906864;29;20132;-67
2022/06/09 03:51:28;;;;;;;41.25;26.60;;;;;;;;;;4900803;29;20413;-67
2022/06/09 03:53:54;;;;;;;56.63;25.95;;;;;;;;;;4901643;29;20111;-68
2022/06/09 03:56:21;;;;;;;42.03;26.27;;;;;;;;;;4898079;29;20147;-67
2022/06/09 03:58:48;;;;;;;33.00;24.95;;;;;;;;;;4900932;29;20129;-67
2022/06/09 04:01:17;;;;;;;42.45;25.35;;;;;;;;;;4901030;29;20059;-69
2022/06/09 04:03:44;;;;;;;39.75;25.80;;;;;;;;;;4900730;29;20044;-67
2022/06/09 04:06:15;;;;;;;71.90;28.70;;;;;;;;;;4901027;29;20143;-68
2022/06/09 04:08:42;;;;;;;47.22;25.67;;;;;;;;;;4899419;29;20104;-68
2022/06/09 04:11:09;;;;;;;36.45;26.90;;;;;;;;;;4898771;29;20416;-68
2022/06/09 04:13:36;;;;;;;33.03;26.55;;;;;;;;;;4914333;29;20083;-68
2022/06/09 04:16:19;;;;;;;45.30;23.98;;;;;;;;;;4906425;29;20444;-68
2022/06/09 04:18:46;;;;;;;36.47;22.60;;;;;;;;;;4900976;29;20128;-68
2022/06/09 04:21:12;;;;;;;29.13;20.15;;;;;;;;;;4900277;29;20596;-68
2022/06/09 04:23:39;;;;;;;45.70;22.02;;;;;;;;;;4899516;29;20044;-66
2022/06/09 04:26:05;;;;;;;35.22;19.60;;;;;;;;;;4898833;29;20128;-66
2022/06/09 04:28:32;;;;;;;30.42;19.38;;;;;;;;;;4900653;29;20053;-66
2022/06/09 04:30:58;;;;;;;37.05;18.95;;;;;;;;;;4902139;29;20045;-67
2022/06/09 04:33:25;;;;;;;25.73;18.75;;;;;;;;;;4911361;29;20131;-67
2022/06/09 04:35:51;;;;;;;51.58;20.45;;;;;;;;;;4899798;29;20063;-67
2022/06/09 04:38:18;;;;;;;32.15;18.90;;;;;;;;;;4896939;29;20048;-67
2022/06/09 04:40:45;;;;;;;28.63;16.85;;;;;;;;;;4900550;29;20139;-68
2022/06/09 04:43:11;;;;;;;34.60;17.58;;;;;;;;;;4900368;29;20048;-68
2022/06/09 04:45:39;;;;;;;28.52;17.65;;;;;;;;;;4900708;29;20044;-68
2022/06/09 04:48:06;;;;;;;44.05;18.67;;;;;;;;;;4900103;29;20044;-67
2022/06/09 04:50:33;;;;;;;44.92;18.60;;;;;;;;;;4896347;29;20506;-68
2022/06/09 04:53:00;;;;;;;35.78;17.02;;;;;;;;;;4917496;29;20123;-67
2022/06/09 04:55:26;;;;;;;29.23;17.08;;;;;;;;;;4905543;29;20438;-68
2022/06/09 04:57:53;;;;;;;33.15;17.90;;;;;;;;;;4899724;29;20122;-69
2022/06/09 05:00:20;;;;;;;24.75;17.52;;;;;;;;;;4899301;29;20040;-68
2022/06/09 05:02:46;;;;;;;37.95;16.55;;;;;;;;;;4895558;29;20049;-68
2022/06/09 05:05:18;;;;;;;22.33;15.98;;;;;;;;;;4899429;29;20561;-68
2022/06/09 05:07:45;;;;;;;26.23;14.77;;;;;;;;;;4909525;29;20489;-71
2022/06/09 05:10:11;;;;;;;26.88;15.50;;;;;;;;;;4904936;29;20049;-70
2022/06/09 05:12:38;;;;;;;44.17;16.80;;;;;;;;;;4905271;29;20044;-70
2022/06/09 05:15:05;;;;;;;39.08;17.33;;;;;;;;;;4911006;29;20040;-70
2022/06/09 05:17:31;;;;;;;64.32;19.55;;;;;;;;;;4914778;29;20072;-69
2022/06/09 05:19:58;;;;;;;30.65;14.95;;;;;;;;;;4914983;29;20087;-70
2022/06/09 05:22:25;;;;;;;22.65;15.63;;;;;;;;;;4903513;29;20068;-69
2022/06/09 05:24:51;;;;;;;20.25;15.52;;;;;;;;;;4900361;29;20119;-69
2022/06/09 05:27:18;;;;;;;22.48;16.55;;;;;;;;;;4902503;29;20097;-68
2022/06/09 05:29:44;;;;;;;44.40;18.33;;;;;;;;;;4899664;29;20171;-69
2022/06/09 05:32:11;;;;;;;31.40;16.77;;;;;;;;;;4907714;29;20047;-69
2022/06/09 05:34:38;;;;;;;32.08;16.67;;;;;;;;;;4909726;29;20099;-70
2022/06/09 05:37:04;;;;;;;25.08;16.38;;;;;;;;;;4902652;29;20045;-69
2022/06/09 05:45:03;;;;;;;42.22;15.50;;;;;;;;;;4895859;29;20044;-70
2022/06/09 05:47:29;;;;;;;65.82;17.80;;;;;;;;;;4912613;29;20454;-68
2022/06/09 05:49:56;;;;;;;44.38;16.40;;;;;;;;;;4913273;29;20059;-66
2022/06/09 05:52:24;;;;;;;48.05;15.23;;;;;;;;;;4904837;29;20139;-67
2022/06/09 05:54:51;;;;;;;32.42;14.95;;;;;;;;;;4904557;29;20095;-67
2022/06/09 05:57:19;;;;;;;44.72;15.82;;;;;;;;;;4913853;29;20037;-68
2022/06/09 05:59:45;;;;;;;33.83;14.38;;;;;;;;;;4900903;29;20052;-66
2022/06/09 06:02:12;;;;;;;59.78;15.23;;;;;;;;;;4900776;29;20051;-72
2022/06/09 06:04:39;;;;;;;15.88;11.30;;;;;;;;;;4902971;29;20051;-69
2022/06/09 06:07:06;;;;;;;21.02;12.00;;;;;;;;;;4903293;29;20162;-66
2022/06/09 06:09:33;;;;;;;27.77;12.68;;;;;;;;;;4903383;29;20048;-68
2022/06/09 06:12:01;;;;;;;65.20;15.65;;;;;;;;;;4914912;29;20062;-69
2022/06/09 06:14:33;;;;;;;33.10;12.40;;;;;;;;;;4917825;29;20048;-69
2022/06/09 06:17:00;;;;;;;24.10;12.18;;;;;;;;;;4902094;29;20079;-67
2022/06/09 06:19:27;;;;;;;14.75;10.45;;;;;;;;;;4902559;29;20041;-66
2022/06/09 06:21:53;;;;;;;39.30;12.75;;;;;;;;;;4902635;29;20040;-68
2022/06/09 06:24:21;;;;;;;24.05;11.63;;;;;;;;;;4904473;29;20111;-70
2022/06/09 06:26:48;;;;;;;24.92;11.70;;;;;;;;;;4916968;29;20056;-70
2022/06/09 06:29:22;;;;;;;18.92;10.63;;;;;;;;;;4902621;29;20120;-69
2022/06/09 06:31:49;;;;;;;31.35;12.13;;;;;;;;;;4913853;29;20493;-70
2022/06/09 06:34:16;;;;;;;41.40;12.65;;;;;;;;;;4906538;29;20427;-69
2022/06/09 06:36:43;;;;;;;34.38;12.75;;;;;;;;;;4902625;29;20524;-69
2022/06/09 06:39:10;;;;;;;40.47;13.27;;;;;;;;;;4900391;29;20116;-69
2022/06/09 06:41:38;;;;;;;74.95;15.63;;;;;;;;;;4917399;29;20095;-69
2022/06/09 06:44:05;;;;;;;57.00;14.02;;;;;;;;;;4899438;29;20104;-69
2022/06/09 06:46:31;;;;;;;50.00;13.85;;;;;;;;;;4901032;29;20044;-69
2022/06/09 06:48:58;;;;;;;35.78;13.57;;;;;;;;;;4900858;29;20068;-69
2022/06/09 06:51:25;;;;;;;16.42;11.57;;;;;;;;;;4900970;29;20053;-68
2022/06/09 06:53:52;;;;;;;25.67;12.30;;;;;;;;;;4902322;29;20136;-68
2022/06/09 06:56:18;;;;;;;20.17;11.50;;;;;;;;;;4910864;29;20421;-68
2022/06/09 06:58:45;;;;;;;19.60;12.57;;;;;;;;;;4907031;29;20099;-68
2022/06/09 07:01:11;;;;;;;31.50;12.98;;;;;;;;;;4901420;29;20072;-68
2022/06/09 07:03:39;;;;;;;29.80;11.18;;;;;;;;;;4901551;29;20123;-68
2022/06/09 07:06:08;;;;;;;25.85;10.95;;;;;;;;;;4907294;29;20052;-68
2022/06/09 07:08:35;;;;;;;86.15;15.80;;;;;;;;;;4897958;29;20040;-68
2022/06/09 07:11:03;;;;;;;39.97;12.75;;;;;;;;;;4914655;29;20580;-68
2022/06/09 07:13:30;;;;;;;22.05;11.18;;;;;;;;;;4916207;29;20048;-69
2022/06/09 07:15:56;;;;;;;31.25;11.43;;;;;;;;;;4908632;29;20467;-68
2022/06/09 07:18:27;;;;;;;29.17;11.80;;;;;;;;;;4908508;29;20040;-68
2022/06/09 07:20:55;;;;;;;30.98;12.05;;;;;;;;;;4908495;29;20088;-68
2022/06/09 07:23:22;;;;;;;24.80;10.68;;;;;;;;;;4898074;29;20136;-68
2022/06/09 07:25:49;;;;;;;27.63;12.30;;;;;;;;;;4901095;29;20391;-69
2022/06/09 07:28:15;;;;;;;29.15;11.93;;;;;;;;;;4901737;29;20041;-68
2022/06/09 07:30:42;;;;;;;33.20;12.20;;;;;;;;;;4899834;29;20413;-68
2022/06/09 07:33:08;;;;;;;77.30;14.25;;;;;;;;;;4900629;29;20107;-68
2022/06/09 07:35:37;;;;;;;45.20;12.85;;;;;;;;;;4898200;29;20052;-68
2022/06/09 07:38:05;;;;;;;21.20;10.60;;;;;;;;;;4900120;29;20079;-68
2022/06/09 07:40:33;;;;;;;40.58;11.63;;;;;;;;;;4888806;29;20493;-67
2022/06/09 07:42:59;;;;;;;32.92;11.32;;;;;;;;;;4905860;29;20033;-69
2022/06/09 07:45:26;;;;;;;21.77;9.98;;;;;;;;;;4900780;29;20047;-68
2022/06/09 07:47:52;;;;;;;50.75;12.88;;;;;;;;;;4899552;29;20046;-68
2022/06/09 07:50:19;;;;;;;23.15;10.23;;;;;;;;;;4911748;29;20426;-68
2022/06/09 07:52:46;;;;;;;24.77;10.57;;;;;;;;;;4900757;29;20049;-70
2022/06/09 07:55:14;;;;;;;23.67;10.48;;;;;;;;;;4900539;29;20565;-69
2022/06/09 07:57:40;;;;;;;18.77;10.00;;;;;;;;;;4900274;29;20127;-68
2022/06/09 08:00:08;;;;;;;47.78;11.45;;;;;;;;;;4918927;29;20040;-69
2022/06/09 08:02:38;;;;;;;38.53;10.85;;;;;;;;;;4915374;29;20112;-69
2022/06/09 08:05:05;;;;;;;23.58;10.52;;;;;;;;;;4899076;29;20123;-68
2022/06/09 08:07:31;;;;;;;14.75;9.48;;;;;;;;;;4900523;29;20056;-70
2022/06/09 08:09:58;;;;;;;112.68;15.80;;;;;;;;;;4905913;29;20494;-69
2022/06/09 08:12:24;;;;;;;32.05;10.88;;;;;;;;;;4903577;29;20044;-68
2022/06/09 08:14:51;;;;;;;24.48;9.43;;;;;;;;;;4915282;29;20036;-69
2022/06/09 08:17:17;;;;;;;48.45;11.13;;;;;;;;;;4909107;29;20075;-69
2022/06/09 08:19:46;;;;;;;17.02;8.55;;;;;;;;;;4901139;29;20052;-67
2022/06/09 08:22:13;;;;;;;32.13;10.30;;;;;;;;;;4900433;29;20123;-68
2022/06/09 08:24:40;;;;;;;26.88;9.05;;;;;;;;;;4900187;29;20447;-68
2022/06/09 08:27:07;;;;;;;54.75;11.52;;;;;;;;;;4900038;29;20044;-68
2022/06/09 08:29:33;;;;;;;78.22;12.82;;;;;;;;;;4897440;29;20041;-68
2022/06/09 08:32:00;;;;;;;18.08;8.60;;;;;;;;;;4899936;29;20049;-69
2022/06/09 08:34:28;;;;;;;31.35;9.63;;;;;;;;;;4899592;29;20096;-68
2022/06/09 08:36:55;;;;;;;56.63;11.90;;;;;;;;;;4899138;29;20123;-68
2022/06/09 08:39:22;;;;;;;15.80;8.23;;;;;;;;;;4900845;29;20108;-69
2022/06/09 08:42:07;;;;;;;37.80;11.55;;;;;;;;;;4898721;29;20127;-68
2022/06/09 08:44:36;;;;;;;27.42;8.15;;;;;;;;;;4899995;29;20048;-67
2022/06/09 08:47:14;;;;;;;21.50;7.70;;;;;;;;;;4898147;29;20131;-68
2022/06/09 08:49:44;;;;;;;21.63;7.70;;;;;;;;;;4899838;29;20060;-68
2022/06/09 08:52:14;;;;;;;13.90;6.85;;;;;;;;;;4899513;29;20139;-69
2022/06/09 08:54:40;;;;;;;24.20;8.20;;;;;;;;;;4900417;29;20688;-68
2022/06/09 08:57:15;;;;;;;24.27;8.20;;;;;;;;;;4900216;29;20048;-69
2022/06/09 08:59:43;;;;;;;35.92;9.52;;;;;;;;;;4897747;29;20072;-68
2022/06/09 09:02:28;;;;;;;20.63;8.43;;;;;;;;;;4898832;29;20136;-69
2022/06/09 09:05:01;;;;;;;22.48;7.95;;;;;;;;;;4899696;29;20071;-69
2022/06/09 09:07:30;;;;;;;26.27;8.65;;;;;;;;;;4909726;29;20059;-68
2022/06/09 09:10:06;;;;;;;53.63;10.40;;;;;;;;;;4906839;29;20451;-68
2022/06/09 09:12:38;;;;;;;13.50;7.97;;;;;;;;;;4899506;29;20394;-70
2022/06/09 09:15:13;;;;;;;26.23;8.23;;;;;;;;;;4896707;29;20068;-68
2022/06/09 09:17:43;;;;;;;40.70;9.48;;;;;;;;;;4915043;29;20051;-68
2022/06/09 09:20:34;;;;;;;31.50;8.70;;;;;;;;;;4913237;29;20067;-68
2022/06/09 09:23:09;;;;;;;16.83;7.28;;;;;;;;;;4899913;29;20083;-68
2022/06/09 09:25:47;;;;;;;53.35;9.82;;;;;;;;;;4903385;29;20040;-69
2022/06/09 09:28:22;;;;;;;21.83;7.63;;;;;;;;;;4904154;29;20049;-68
2022/06/09 09:30:49;;;;;;;36.40;9.73;;;;;;;;;;4903599;29;20067;-68
2022/06/09 09:33:17;;;;;;;21.63;8.05;;;;;;;;;;4903640;29;20119;-68
2022/06/09 09:35:45;;;;;;;34.67;9.25;;;;;;;;;;4899232;29;20062;-68
2022/06/09 09:38:15;;;;;;;32.10;8.77;;;;;;;;;;4917398;29;20076;-68
2022/06/09 09:40:43;;;;;;;37.55;8.45;;;;;;;;;;4904436;29;20045;-68
2022/06/09 09:43:11;;;;;;;31.73;9.05;;;;;;;;;;4903753;29;20409;-68
2022/06/09 09:45:47;;;;;;;24.95;7.68;;;;;;;;;;4903137;29;20064;-68
2022/06/09 09:48:17;;;;;;;35.00;8.30;;;;;;;;;;4902166;29;20201;-69
2022/06/09 09:50:52;;;;;;;38.10;8.90;;;;;;;;;;4900584;29;20536;-68
2022/06/09 09:53:19;;;;;;;232.20;18.88;;;;;;;;;;4900817;29;20120;-68
2022/06/09 09:55:54;;;;;;;14.88;6.13;;;;;;;;;;4912603;29;20142;-69
2022/06/09 09:58:23;;;;;;;22.95;6.47;;;;;;;;;;4914089;29;20489;-69
2022/06/09 10:00:52;;;;;;;51.38;9.13;;;;;;;;;;4911459;29;20049;-67
2022/06/09 10:09:53;;;;;;;32.75;7.75;;;;;;;;;;4904713;29;20033;-69
2022/06/09 10:12:37;;;;;;;26.50;9.90;;;;;;;;;;4904778;29;20464;-68
2022/06/09 10:15:10;;;;;;;36.58;7.40;;;;;;;;;;4917181;29;20382;-69
2022/06/09 10:17:57;;;;;;;31.77;9.68;;;;;;;;;;4906363;29;20143;-68
2022/06/09 10:20:43;;;;;;;28.85;7.18;;;;;;;;;;4909955;29;20032;-69
2022/06/09 10:23:09;;;;;;;229.38;24.25;;;;;;;;;;4915830;29;20056;-69
2022/06/09 10:25:42;;;;;;;35.72;8.95;;;;;;;;;;4917139;29;20556;-68
2022/06/09 10:28:13;;;;;;;41.33;8.43;;;;;;;;;;4908963;29;20155;-68
2022/06/09 10:30:46;;;;;;;32.25;6.65;;;;;;;;;;4903024;29;20051;-68
2022/06/09 10:33:24;;;;;;;28.60;7.25;;;;;;;;;;4902401;29;20044;-69
2022/06/09 10:35:54;;;;;;;26.70;6.60;;;;;;;;;;4898584;29;20763;-73
2022/06/09 10:38:25;;;;;;;13.93;6.22;;;;;;;;;;4917366;29;20082;-70
2022/06/09 10:40:56;;;;;;;15.80;6.10;;;;;;;;;;4913114;29;20123;-69
2022/06/09 10:43:29;;;;;;;31.40;8.23;;;;;;;;;;4913306;29;20048;-69
2022/06/09 10:46:03;;;;;;;23.48;6.38;;;;;;;;;;4909749;29;20123;-69
2022/06/09 10:57:10;;;;;;;29.55;6.00;;;;;;;;;;4899135;29;20057;-70
2022/06/09 10:59:40;;;;;;;17.63;5.78;;;;;;;;;;4917105;29;20123;-69
2022/06/09 11:02:11;;;;;;;12.75;5.30;;;;;;;;;;4900834;29;20119;-69
2022/06/09 11:04:38;;;;;;;30.02;6.78;;;;;;;;;;4907138;29;20497;-69
2022/06/09 11:07:11;;;;;;;36.50;6.95;;;;;;;;;;4912640;29;20049;-69
2022/06/09 11:09:57;;;;;;;199.88;19.35;;;;;;;;;;4914133;29;20059;-68
2022/06/09 11:12:24;;;;;;;24.00;6.18;;;;;;;;;;4916302;29;20044;-67
2022/06/09 11:14:57;;;;;;;37.30;7.45;;;;;;;;;;4915743;29;20127;-68
2022/06/09 11:17:27;;;;;;;37.45;7.40;;;;;;;;;;4899342;29;20128;-69
2022/06/09 11:19:56;;;;;;;41.80;7.65;;;;;;;;;;4900828;29;20044;-69
2022/06/09 11:22:44;;;;;;;26.23;6.85;;;;;;;;;;4908413;29;20527;-68
2022/06/09 11:25:29;;;;;;;17.33;6.78;;;;;;;;;;4911834;29;20532;-67
2022/06/09 11:28:16;;;;;;;26.13;6.25;;;;;;;;;;4901639;29;20068;-70
2022/06/09 11:30:48;;;;;;;33.15;8.80;;;;;;;;;;4901485;29;20549;-68
2022/06/09 11:33:39;;;;;;;22.73;5.88;;;;;;;;;;4901824;29;20045;-69
2022/06/09 11:36:15;;;;;;;71.68;9.55;;;;;;;;;;4901212;29;20071;-69
2022/06/09 11:38:51;;;;;;;29.02;6.90;;;;;;;;;;4898743;29;20087;-70
2022/06/09 11:41:20;;;;;;;14.48;5.43;;;;;;;;;;4899558;29;20044;-68
2022/06/09 11:44:10;;;;;;;15.57;5.05;;;;;;;;;;4900103;29;20051;-68
2022/06/09 11:46:38;;;;;;;31.00;6.35;;;;;;;;;;4909271;29;20052;-69
2022/06/09 11:49:10;;;;;;;33.17;6.55;;;;;;;;;;4915626;29;20127;-63
2022/06/09 11:51:36;;;;;;;37.88;6.78;;;;;;;;;;4911420;29;20091;-71
2022/06/09 11:54:05;;;;;;;28.45;6.55;;;;;;;;;;4901210;29;20438;-71
2022/06/09 11:56:36;;;;;;;41.78;7.25;;;;;;;;;;4901929;29;20123;-70
2022/06/09 11:59:12;;;;;;;14.23;5.63;;;;;;;;;;4900991;29;20047;-71
2022/06/09 12:01:39;;;;;;;29.60;6.22;;;;;;;;;;4907936;29;20104;-70
2022/06/09 12:04:28;;;;;;;36.72;6.88;;;;;;;;;;4906947;29;20048;-70
2022/06/09 12:07:13;;;;;;;31.30;6.28;;;;;;;;;;4905493;29;20047;-72
2022/06/09 12:09:52;;;;;;;34.88;6.85;;;;;;;;;;4911780;29;20135;-70
2022/06/09 12:12:24;;;;;;;35.65;7.00;;;;;;;;;;4913099;29;20104;-70
2022/06/09 12:15:08;;;;;;;35.58;6.55;;;;;;;;;;4914837;29;20135;-70
2022/06/09 12:17:34;;;;;;;23.00;6.05;;;;;;;;;;4899871;29;20049;-71
2022/06/09 12:20:04;;;;;;;25.92;6.35;;;;;;;;;;4910913;29;20095;-73
2022/06/09 12:22:40;;;;;;;23.02;5.80;;;;;;;;;;4903269;29;20501;-70
2022/06/09 12:25:16;;;;;;;42.85;8.07;;;;;;;;;;4899778;29;20044;-70
2022/06/09 12:27:42;;;;;;;83.10;8.77;;;;;;;;;;4899765;29;20112;-71
2022/06/09 12:30:15;;;;;;;21.17;5.80;;;;;;;;;;4899629;29;20141;-70
2022/06/09 12:32:49;;;;;;;27.40;6.97;;;;;;;;;;4897008;29;20036;-70
2022/06/09 12:35:25;;;;;;;33.40;7.70;;;;;;;;;;4897607;29;20048;-72
2022/06/09 12:37:56;;;;;;;42.35;7.95;;;;;;;;;;4899702;29;20409;-71
2022/06/09 12:40:25;;;;;;;21.25;5.95;;;;;;;;;;4906323;29;20036;-71
2022/06/09 12:43:01;;;;;;;31.92;6.78;;;;;;;;;;4911831;29;20469;-71
2022/06/09 12:45:34;;;;;;;32.85;7.25;;;;;;;;;;4903104;29;20115;-72
2022/06/09 12:48:10;;;;;;;31.35;6.65;;;;;;;;;;4914890;29;20052;-72
2022/06/09 12:50:48;;;;;;;34.95;6.97;;;;;;;;;;4899603;29;20459;-72
2022/06/09 12:53:17;;;;;;;33.75;7.53;;;;;;;;;;4901858;29;20108;-72
2022/06/09 12:55:49;;;;;;;22.67;6.40;;;;;;;;;;4900166;29;20044;-72
2022/06/09 12:58:18;;;;;;;32.40;6.93;;;;;;;;;;4901076;29;20079;-72
2022/06/09 13:01:04;;;;;;;48.45;8.15;;;;;;;;;;4902802;29;20119;-72
2022/06/09 13:04:00;;;;;;;41.22;7.47;;;;;;;;;;4910241;29;20458;-71
2022/06/09 13:06:36;;;;;;;27.25;7.15;;;;;;;;;;4893305;29;20429;-74
2022/06/09 13:09:13;;;;;;;29.73;7.65;;;;;;;;;;4918922;29;20068;-72
2022/06/09 13:14:27;;;;;;;41.05;7.63;;;;;;;;;;4918932;29;20044;-73
2022/06/09 13:16:55;;;;;;;198.63;17.13;;;;;;;;;;4914595;29;20091;-74
2022/06/09 13:19:24;;;;;;;51.88;8.20;;;;;;;;;;4908296;29;20061;-72
2022/06/09 13:21:52;;;;;;;30.42;7.35;;;;;;;;;;4903549;29;20033;-72
2022/06/09 13:24:31;;;;;;;55.15;8.63;;;;;;;;;;4903947;29;20050;-71
2022/06/09 13:26:58;;;;;;;40.88;7.85;;;;;;;;;;4900901;29;20054;-72
2022/06/09 13:29:34;;;;;;;69.38;10.38;;;;;;;;;;4914163;29;20076;-72
2022/06/09 13:32:09;;;;;;;18.50;6.38;;;;;;;;;;4903599;29;20136;-72
2022/06/09 13:34:41;;;;;;;37.78;7.80;;;;;;;;;;4903558;29;20417;-71
2022/06/09 13:37:14;;;;;;;57.45;8.90;;;;;;;;;;4903448;29;20051;-72
2022/06/09 13:39:44;;;;;;;35.67;7.75;;;;;;;;;;4904119;29;20072;-71
2022/06/09 13:42:13;;;;;;;34.00;7.85;;;;;;;;;;4917882;29;20457;-72
2022/06/09 13:44:42;;;;;;;84.55;10.85;;;;;;;;;;4897258;29;20049;-70
2022/06/09 13:47:13;;;;;;;34.15;7.22;;;;;;;;;;4900452;29;20486;-70
2022/06/09 13:50:00;;;;;;;21.15;6.22;;;;;;;;;;4902784;29;20041;-70
2022/06/09 13:52:32;;;;;;;28.88;7.53;;;;;;;;;;4903120;29;20084;-72
2022/06/09 13:54:59;;;;;;;26.33;6.80;;;;;;;;;;4905795;29;20044;-71
2022/06/09 13:57:35;;;;;;;26.08;6.60;;;;;;;;;;4903529;29;20521;-71
2022/06/09 14:00:05;;;;;;;41.95;8.57;;;;;;;;;;4913846;29;20044;-71
2022/06/09 14:02:43;;;;;;;65.22;9.45;;;;;;;;;;4900991;29;20051;-71
2022/06/09 14:05:12;;;;;;;46.20;7.95;;;;;;;;;;4900228;29;20080;-71
2022/06/09 14:07:39;;;;;;;40.95;8.10;;;;;;;;;;4901191;29;20061;-72
2022/06/09 14:10:06;;;;;;;37.63;7.75;;;;;;;;;;4900613;29;20068;-71
2022/06/09 14:12:33;;;;;;;49.90;8.45;;;;;;;;;;4904073;29;20123;-71
2022/06/09 14:14:59;;;;;;;47.17;8.60;;;;;;;;;;4916067;29;20401;-71
2022/06/09 14:17:31;;;;;;;28.45;7.55;;;;;;;;;;4904169;29;20040;-71
2022/06/09 14:19:57;;;;;;;18.73;7.20;;;;;;;;;;4902706;29;20911;-72
2022/06/09 14:22:24;;;;;;;27.52;7.35;;;;;;;;;;4902959;29;20076;-72
2022/06/09 14:24:51;;;;;;;32.15;7.10;;;;;;;;;;4902739;29;20037;-70
2022/06/09 14:27:17;;;;;;;21.08;7.00;;;;;;;;;;4903067;29;20040;-71
2022/06/09 14:29:44;;;;;;;78.80;10.23;;;;;;;;;;4899613;29;20071;-71
2022/06/09 14:32:20;;;;;;;25.60;7.50;;;;;;;;;;4901870;29;20083;-71
2022/06/09 14:34:47;;;;;;;25.50;7.25;;;;;;;;;;4902269;29;20045;-71
2022/06/09 14:37:14;;;;;;;29.75;7.10;;;;;;;;;;4907205;29;20040;-71
2022/06/09 14:39:41;;;;;;;30.67;7.25;;;;;;;;;;4913222;29;20132;-72
2022/06/09 14:42:12;;;;;;;22.52;6.88;;;;;;;;;;4898556;29;20131;-71
2022/06/09 14:44:39;;;;;;;33.58;7.75;;;;;;;;;;4917406;29;20127;-71
2022/06/09 14:47:09;;;;;;;26.25;8.02;;;;;;;;;;4902209;29;20083;-71
2022/06/09 14:49:36;;;;;;;29.92;8.23;;;;;;;;;;4902617;29;20048;-71
2022/06/09 14:52:03;;;;;;;40.25;7.57;;;;;;;;;;4913209;29;20075;-71
2022/06/09 14:54:29;;;;;;;279.58;24.85;;;;;;;;;;4914006;29;20569;-71
2022/06/09 14:57:00;;;;;;;41.22;8.05;;;;;;;;;;4898529;29;20454;-71
2022/06/09 14:59:27;;;;;;;32.40;6.90;;;;;;;;;;4906131;29;20044;-70
2022/06/09 15:01:55;;;;;;;36.95;7.60;;;;;;;;;;4902130;29;20115;-70